Time;durP1;ratioP1;P1;durP2;ratioP2;P2;SDS_P1;SDS_P2;PMS_P1;PMS_P2;Temp;Humidity;BMP_temperature;BMP_pressure;BME280_temperature;BME280_humidity;BME280_pressure;Samples;Min_cycle;Max_cycle;Signal;HPM_P1;HPM_P2
2023/07/15 00:00:15;;;;;;;8.18;4.05;;;20.20;99.90;;;;;;5092056;28;20078;-86
2023/07/15 00:02:43;;;;;;;8.95;4.35;;;20.20;99.90;;;;;;5091722;28;20043;-86
2023/07/15 00:05:20;;;;;;;9.98;4.32;;;20.20;99.90;;;;;;5091529;28;20075;-85
2023/07/15 00:07:47;;;;;;;9.35;4.00;;;20.20;99.90;;;;;;5091664;28;20131;-86
2023/07/15 00:10:13;;;;;;;10.65;4.32;;;20.10;99.90;;;;;;5091949;28;20047;-85
2023/07/15 00:12:39;;;;;;;9.77;4.38;;;20.10;99.90;;;;;;5091447;28;20040;-85
2023/07/15 00:15:08;;;;;;;9.68;4.30;;;20.10;99.90;;;;;;5091578;28;20521;-85
2023/07/15 00:17:33;;;;;;;9.23;4.22;;;20.10;99.90;;;;;;5074953;28;20043;-85
2023/07/15 00:19:59;;;;;;;11.75;4.10;;;20.00;99.90;;;;;;5091705;28;20114;-85
2023/07/15 00:22:24;;;;;;;9.95;4.03;;;20.00;99.90;;;;;;5091172;28;20047;-85
2023/07/15 00:24:50;;;;;;;9.98;4.15;;;20.00;99.90;;;;;;5091267;28;20044;-86
2023/07/15 00:27:16;;;;;;;9.23;3.83;;;20.00;99.90;;;;;;5091802;28;20028;-86
2023/07/15 00:29:41;;;;;;;8.50;3.95;;;20.00;99.90;;;;;;5074754;28;20454;-86
2023/07/15 00:32:12;;;;;;;9.23;4.50;;;20.00;99.90;;;;;;5090667;28;20047;-86
2023/07/15 00:34:37;;;;;;;8.95;3.78;;;20.00;99.90;;;;;;5091038;28;20460;-86
2023/07/15 00:37:03;;;;;;;9.75;4.05;;;20.00;99.90;;;;;;5091617;28;20048;-86
2023/07/15 00:39:29;;;;;;;9.27;3.72;;;20.00;99.90;;;;;;5090966;28;20119;-85
2023/07/15 00:41:58;;;;;;;12.27;4.22;;;20.00;99.90;;;;;;5091223;28;20126;-85
2023/07/15 00:44:23;;;;;;;7.60;3.45;;;20.00;99.90;;;;;;5057801;28;20055;-85
2023/07/15 00:46:57;;;;;;;9.13;3.95;;;20.00;99.90;;;;;;5091111;28;20035;-86
2023/07/15 00:49:30;;;;;;;8.15;3.45;;;20.00;99.90;;;;;;5090995;28;20398;-86
2023/07/15 00:52:04;;;;;;;8.25;3.50;;;19.90;99.90;;;;;;5091004;28;20504;-86
2023/07/15 00:54:35;;;;;;;8.60;3.10;;;20.00;99.90;;;;;;5073904;28;20062;-86
2023/07/15 00:57:01;;;;;;;9.23;3.30;;;20.00;99.90;;;;;;5073770;28;20044;-86
2023/07/15 00:59:28;;;;;;;9.32;3.60;;;20.00;99.90;;;;;;5090619;28;20036;-86
2023/07/15 01:01:55;;;;;;;9.13;3.40;;;19.90;99.90;;;;;;5090308;28;20089;-86
2023/07/15 01:04:21;;;;;;;9.20;3.22;;;19.90;99.90;;;;;;5090042;28;20036;-86
2023/07/15 01:06:47;;;;;;;10.52;3.67;;;20.00;99.90;;;;;;5090662;28;20071;-86
2023/07/15 01:09:13;;;;;;;9.77;3.70;;;20.00;99.90;;;;;;5091033;28;20036;-86
2023/07/15 01:11:39;;;;;;;10.57;3.55;;;20.00;99.90;;;;;;5073696;28;20028;-86
2023/07/15 01:14:06;;;;;;;9.30;3.75;;;20.00;99.90;;;;;;5090537;28;20077;-86
2023/07/15 01:16:32;;;;;;;8.45;3.35;;;20.00;99.90;;;;;;5090371;28;20566;-86
2023/07/15 01:18:58;;;;;;;10.00;3.55;;;20.00;99.90;;;;;;5090144;28;20048;-86
2023/07/15 01:21:28;;;;;;;8.25;3.50;;;20.00;99.90;;;;;;5073728;28;20043;-86
2023/07/15 01:23:53;;;;;;;8.73;3.13;;;20.00;99.90;;;;;;5090185;28;20054;-86
2023/07/15 01:26:19;;;;;;;8.65;3.40;;;20.00;99.90;;;;;;5073822;28;20406;-86
2023/07/15 01:28:45;;;;;;;9.07;3.30;;;20.00;99.90;;;;;;5073846;28;20039;-86
2023/07/15 01:31:12;;;;;;;8.48;3.50;;;20.00;99.90;;;;;;5090388;28;20560;-86
2023/07/15 01:33:38;;;;;;;10.80;3.40;;;20.00;99.90;;;;;;5090156;28;20048;-86
2023/07/15 01:36:04;;;;;;;7.75;3.60;;;20.10;99.90;;;;;;5073346;28;20470;-86
2023/07/15 01:38:31;;;;;;;9.95;3.35;;;20.10;99.90;;;;;;5073290;28;20031;-86
2023/07/15 01:40:57;;;;;;;7.70;3.25;;;20.10;99.90;;;;;;5090247;28;20036;-86
2023/07/15 01:43:22;;;;;;;11.02;3.25;;;20.10;99.90;;;;;;5089764;28;20085;-86
2023/07/15 01:45:48;;;;;;;9.27;3.33;;;20.10;99.90;;;;;;5090080;28;20040;-86
2023/07/15 01:48:14;;;;;;;8.57;3.78;;;20.10;99.90;;;;;;5090191;28;20036;-86
2023/07/15 01:50:39;;;;;;;8.40;3.00;;;20.10;99.90;;;;;;5090415;28;20038;-86
2023/07/15 01:53:05;;;;;;;9.00;3.40;;;20.10;99.90;;;;;;5089625;28;20482;-86
2023/07/15 01:55:31;;;;;;;10.02;3.80;;;20.10;99.90;;;;;;5089297;28;20043;-86
2023/07/15 01:57:57;;;;;;;8.23;3.10;;;20.10;99.90;;;;;;5089991;28;20032;-86
2023/07/15 02:00:22;;;;;;;7.85;3.22;;;20.10;99.90;;;;;;5089383;28;20044;-86
2023/07/15 02:02:48;;;;;;;8.65;3.15;;;20.10;99.90;;;;;;5089474;28;20063;-86
2023/07/15 02:05:13;;;;;;;8.00;3.58;;;20.00;99.90;;;;;;5090226;28;20036;-86
2023/07/15 02:07:39;;;;;;;7.82;3.00;;;20.00;99.90;;;;;;5090037;28;20518;-86
2023/07/15 02:10:05;;;;;;;9.32;3.20;;;20.10;99.90;;;;;;5089983;28;20032;-86
2023/07/15 02:12:31;;;;;;;8.27;3.28;;;20.00;99.90;;;;;;5072568;28;20036;-86
2023/07/15 02:14:57;;;;;;;9.73;3.15;;;20.00;99.90;;;;;;5090420;28;20040;-85
2023/07/15 02:17:23;;;;;;;7.55;3.50;;;20.00;99.90;;;;;;5078523;28;20043;-85
2023/07/15 02:19:52;;;;;;;7.78;3.30;;;20.00;99.90;;;;;;5096273;28;20039;-85
2023/07/15 02:22:18;;;;;;;6.97;3.03;;;20.00;99.90;;;;;;5094318;28;20040;-85
2023/07/15 02:24:44;;;;;;;7.75;3.10;;;20.00;99.90;;;;;;5095139;28;20067;-85
2023/07/15 02:27:09;;;;;;;8.18;3.33;;;20.00;99.90;;;;;;5094647;28;20471;-85
2023/07/15 02:29:35;;;;;;;7.78;2.97;;;20.00;99.80;;;;;;5077598;28;20043;-85
2023/07/15 02:32:02;;;;;;;8.70;3.13;;;20.00;99.90;;;;;;5094497;28;20105;-85
2023/07/15 02:34:28;;;;;;;9.13;3.42;;;20.00;99.90;;;;;;5077260;28;20036;-85
2023/07/15 02:36:53;;;;;;;8.98;3.35;;;20.00;99.90;;;;;;5093628;28;20040;-85
2023/07/15 02:39:20;;;;;;;9.20;3.30;;;20.00;99.90;;;;;;5076365;28;20036;-85
2023/07/15 02:41:46;;;;;;;8.15;3.63;;;20.00;99.90;;;;;;5093140;28;20040;-85
2023/07/15 02:44:12;;;;;;;8.00;2.83;;;20.00;99.40;;;;;;5076693;28;20078;-85
2023/07/15 02:46:38;;;;;;;7.95;3.47;;;20.10;99.20;;;;;;5093585;28;20064;-85
2023/07/15 02:49:04;;;;;;;6.70;3.08;;;20.10;98.50;;;;;;5094076;28;20032;-85
2023/07/15 02:51:29;;;;;;;10.98;3.65;;;20.10;98.80;;;;;;5093182;28;20085;-85
2023/07/15 02:53:55;;;;;;;8.70;3.40;;;20.10;98.20;;;;;;5076091;28;20039;-85
2023/07/15 02:56:21;;;;;;;7.95;3.45;;;20.10;98.10;;;;;;5093188;28;20095;-85
2023/07/15 02:58:46;;;;;;;8.07;3.10;;;20.10;97.30;;;;;;5092976;28;20513;-85
2023/07/15 03:01:12;;;;;;;7.97;2.92;;;20.10;96.70;;;;;;5093236;28;20471;-85
2023/07/15 03:03:37;;;;;;;9.15;3.17;;;20.20;96.40;;;;;;5075992;28;20517;-86
2023/07/15 03:06:03;;;;;;;8.07;3.00;;;20.10;96.10;;;;;;5076142;28;20039;-85
2023/07/15 03:08:29;;;;;;;7.72;2.80;;;20.20;95.60;;;;;;5075946;28;20080;-85
2023/07/15 03:10:55;;;;;;;7.78;2.80;;;20.20;95.40;;;;;;5076225;28;20039;-85
2023/07/15 03:13:21;;;;;;;8.82;3.20;;;20.20;95.40;;;;;;5092334;28;20520;-85
2023/07/15 03:15:47;;;;;;;7.10;3.05;;;20.20;95.00;;;;;;5092838;28;20032;-85
2023/07/15 03:18:13;;;;;;;7.05;2.55;;;20.20;94.60;;;;;;5092775;28;20595;-85
2023/07/15 03:20:38;;;;;;;8.88;3.03;;;20.30;94.20;;;;;;5075884;28;20086;-86
2023/07/15 03:23:04;;;;;;;8.38;2.67;;;20.30;94.00;;;;;;5092557;28;20040;-85
2023/07/15 03:25:30;;;;;;;7.97;2.50;;;20.30;93.70;;;;;;5092631;28;20486;-85
2023/07/15 03:27:56;;;;;;;7.22;2.50;;;20.30;93.30;;;;;;5091719;28;20039;-85
2023/07/15 03:30:21;;;;;;;9.45;3.15;;;20.40;93.40;;;;;;5092741;28;20039;-86
2023/07/15 03:32:47;;;;;;;6.85;2.67;;;20.40;93.10;;;;;;5091873;28;20055;-86
2023/07/15 03:35:13;;;;;;;8.55;2.90;;;20.40;92.90;;;;;;5092374;28;20044;-85
2023/07/15 03:37:41;;;;;;;9.23;3.20;;;20.40;93.00;;;;;;5092333;28;20060;-86
2023/07/15 03:40:10;;;;;;;7.80;2.60;;;20.40;92.80;;;;;;5075119;28;20036;-85
2023/07/15 03:42:40;;;;;;;9.00;2.85;;;20.40;92.50;;;;;;5092046;28;20126;-85
2023/07/15 03:45:06;;;;;;;7.25;2.50;;;20.50;92.40;;;;;;5075694;28;20044;-86
2023/07/15 03:47:34;;;;;;;7.50;2.50;;;20.50;92.30;;;;;;5075629;28;20062;-86
2023/07/15 03:50:02;;;;;;;6.63;2.40;;;20.50;92.30;;;;;;5092370;28;20040;-86
2023/07/15 03:52:28;;;;;;;8.63;2.65;;;20.50;91.90;;;;;;5075296;28;20032;-86
2023/07/15 03:54:53;;;;;;;8.02;2.60;;;20.60;91.80;;;;;;5091983;28;20482;-86
2023/07/15 03:57:19;;;;;;;6.03;2.30;;;20.60;91.80;;;;;;5092320;28;20173;-86
2023/07/15 03:59:44;;;;;;;7.13;2.35;;;20.60;92.10;;;;;;5091570;28;20035;-86
2023/07/15 04:02:10;;;;;;;6.47;2.40;;;20.60;92.10;;;;;;5090997;28;20119;-86
2023/07/15 04:04:36;;;;;;;10.32;2.47;;;20.60;92.00;;;;;;5091698;28;20534;-86
2023/07/15 04:07:02;;;;;;;7.22;2.50;;;20.60;91.70;;;;;;5092885;28;20117;-86
2023/07/15 04:09:28;;;;;;;8.90;3.15;;;20.60;91.60;;;;;;5074722;28;20047;-86
2023/07/15 04:11:54;;;;;;;7.55;2.45;;;20.60;91.40;;;;;;5091219;28;20044;-86
2023/07/15 04:14:19;;;;;;;7.75;2.72;;;20.70;91.10;;;;;;5093044;28;20085;-86
2023/07/15 04:16:45;;;;;;;7.18;2.88;;;20.70;90.90;;;;;;5091319;28;20156;-86
2023/07/15 04:19:11;;;;;;;8.70;2.88;;;20.70;90.90;;;;;;5091865;28;20054;-86
2023/07/15 04:21:36;;;;;;;7.63;2.60;;;20.80;91.00;;;;;;5091892;28;20138;-86
2023/07/15 04:24:03;;;;;;;7.85;2.42;;;20.80;91.10;;;;;;5091429;28;20711;-86
2023/07/15 04:26:29;;;;;;;7.10;2.60;;;20.80;91.10;;;;;;5074793;28;20050;-86
2023/07/15 04:28:55;;;;;;;9.77;2.60;;;20.80;91.30;;;;;;5091742;28;20544;-86
2023/07/15 04:31:21;;;;;;;7.70;2.63;;;20.80;91.50;;;;;;5091517;28;20075;-86
2023/07/15 04:33:49;;;;;;;8.75;2.75;;;20.80;91.60;;;;;;5090844;28;20071;-86
2023/07/15 04:36:17;;;;;;;8.63;2.60;;;20.70;91.60;;;;;;5090813;28;20405;-86
2023/07/15 04:38:42;;;;;;;7.93;2.58;;;20.80;91.70;;;;;;5074630;28;20047;-86
2023/07/15 04:41:08;;;;;;;7.03;2.80;;;20.80;91.80;;;;;;5091304;28;20143;-86
2023/07/15 04:43:33;;;;;;;9.52;3.10;;;20.70;92.00;;;;;;5074053;28;20032;-86
2023/07/15 04:46:00;;;;;;;7.35;2.58;;;20.80;92.10;;;;;;5091619;28;20089;-86
2023/07/15 04:48:25;;;;;;;8.43;2.85;;;20.80;92.30;;;;;;5074693;28;20040;-86
2023/07/15 04:50:51;;;;;;;6.38;2.42;;;20.80;92.40;;;;;;5074114;28;20043;-86
2023/07/15 04:53:17;;;;;;;7.10;2.47;;;20.80;92.30;;;;;;5073769;28;20071;-86
2023/07/15 04:55:44;;;;;;;7.78;2.70;;;20.80;92.30;;;;;;5073709;28;20098;-86
2023/07/15 04:58:11;;;;;;;8.05;2.70;;;20.90;92.20;;;;;;5090356;28;20050;-86
2023/07/15 05:00:37;;;;;;;7.90;2.65;;;20.90;92.40;;;;;;5074376;28;20131;-86
2023/07/15 05:03:05;;;;;;;6.75;2.35;;;20.90;92.30;;;;;;5073800;28;20044;-86
2023/07/15 05:05:30;;;;;;;8.90;2.75;;;20.90;92.30;;;;;;5091432;28;20046;-86
2023/07/15 05:08:03;;;;;;;8.23;2.97;;;20.90;92.50;;;;;;5090745;28;20468;-86
2023/07/15 05:10:28;;;;;;;7.15;2.50;;;20.90;92.10;;;;;;5091201;28;20089;-86
2023/07/15 05:12:54;;;;;;;6.32;2.72;;;21.00;92.20;;;;;;5072983;28;20456;-86
2023/07/15 05:15:19;;;;;;;9.00;2.88;;;21.00;92.50;;;;;;5090817;28;20118;-86
2023/07/15 05:17:45;;;;;;;7.22;2.58;;;21.00;92.40;;;;;;5073365;28;20054;-86
2023/07/15 05:20:13;;;;;;;10.32;2.53;;;21.10;92.30;;;;;;5090752;28;20032;-86
2023/07/15 05:22:39;;;;;;;8.05;2.80;;;21.10;92.20;;;;;;5090070;28;20097;-86
2023/07/15 05:25:05;;;;;;;6.72;2.58;;;21.20;92.20;;;;;;5073696;28;20441;-86
2023/07/15 05:27:31;;;;;;;6.80;2.78;;;21.20;92.20;;;;;;5090604;28;20043;-86
2023/07/15 05:29:56;;;;;;;9.35;2.88;;;21.30;92.00;;;;;;5073846;28;20032;-86
2023/07/15 05:32:22;;;;;;;9.55;2.80;;;21.30;92.50;;;;;;5090148;28;20474;-86
2023/07/15 05:34:48;;;;;;;8.75;2.60;;;21.30;92.10;;;;;;5090464;28;20096;-87
2023/07/15 05:37:13;;;;;;;8.90;2.70;;;21.40;92.10;;;;;;5089636;28;20509;-86
2023/07/15 05:39:39;;;;;;;9.18;2.90;;;21.40;91.60;;;;;;5090611;28;20046;-87
2023/07/15 05:42:05;;;;;;;6.40;2.53;;;21.50;91.80;;;;;;5089652;28;20044;-86
2023/07/15 05:44:30;;;;;;;11.13;2.80;;;21.50;91.60;;;;;;5090320;28;20076;-86
2023/07/15 05:46:56;;;;;;;7.18;2.80;;;21.60;92.70;;;;;;5090226;28;20036;-87
2023/07/15 05:49:21;;;;;;;7.65;2.65;;;21.60;92.60;;;;;;5089950;28;20040;-86
2023/07/15 05:51:47;;;;;;;8.02;2.60;;;21.60;92.80;;;;;;5089353;28;20036;-87
2023/07/15 05:54:13;;;;;;;8.50;2.70;;;21.70;92.90;;;;;;5073142;28;20479;-86
2023/07/15 05:56:38;;;;;;;10.10;2.83;;;21.70;93.10;;;;;;5089598;28;20040;-86
2023/07/15 05:59:04;;;;;;;8.38;2.70;;;21.70;93.20;;;;;;5090110;28;20032;-86
2023/07/15 06:01:30;;;;;;;7.85;2.60;;;21.80;92.30;;;;;;5073223;28;20072;-87
2023/07/15 06:03:56;;;;;;;7.25;2.80;;;21.80;91.80;;;;;;5072533;28;20597;-87
2023/07/15 06:06:21;;;;;;;8.45;2.72;;;21.90;92.10;;;;;;5090224;28;20071;-87
2023/07/15 06:08:47;;;;;;;8.38;2.80;;;21.90;92.20;;;;;;5089976;28;20446;-87
2023/07/15 06:11:12;;;;;;;8.45;2.75;;;21.90;92.00;;;;;;5090166;28;20071;-87
2023/07/15 06:13:38;;;;;;;7.50;2.40;;;22.00;92.70;;;;;;5077545;28;20414;-87
2023/07/15 06:16:04;;;;;;;7.55;3.00;;;22.00;92.60;;;;;;5077373;28;20033;-87
2023/07/15 06:18:29;;;;;;;8.40;2.92;;;22.10;92.20;;;;;;5072933;28;20139;-87
2023/07/15 06:20:55;;;;;;;7.82;2.50;;;22.10;92.70;;;;;;5090158;28;20421;-87
2023/07/15 06:23:21;;;;;;;8.88;2.70;;;22.20;91.60;;;;;;5089546;28;20044;-87
2023/07/15 06:25:46;;;;;;;8.95;2.92;;;22.20;92.20;;;;;;5089986;28;20040;-87
2023/07/15 06:28:12;;;;;;;7.28;3.15;;;22.20;92.10;;;;;;5090059;28;20119;-87
2023/07/15 06:30:37;;;;;;;7.55;2.70;;;22.30;93.00;;;;;;5089844;28;20043;-88
2023/07/15 06:33:03;;;;;;;8.68;3.22;;;22.30;93.80;;;;;;5089578;28;20088;-87
2023/07/15 06:35:29;;;;;;;8.43;2.63;;;22.40;92.90;;;;;;5091093;28;20051;-87
2023/07/15 06:37:54;;;;;;;9.43;3.10;;;22.40;93.40;;;;;;5072996;28;20047;-87
2023/07/15 06:40:20;;;;;;;9.07;2.97;;;22.40;93.30;;;;;;5090272;28;20036;-88
2023/07/15 06:42:46;;;;;;;6.43;2.42;;;22.50;92.70;;;;;;5072726;28;20094;-87
2023/07/15 06:45:12;;;;;;;9.70;3.13;;;22.50;93.50;;;;;;5090134;28;20126;-87
2023/07/15 06:47:38;;;;;;;7.65;3.10;;;22.60;93.20;;;;;;5089913;28;20093;-87
2023/07/15 06:50:05;;;;;;;8.15;2.85;;;22.70;94.20;;;;;;5073186;28;20036;-87
2023/07/15 06:52:30;;;;;;;9.68;2.58;;;22.70;94.40;;;;;;5089600;28;20044;-87
2023/07/15 06:54:56;;;;;;;9.50;2.92;;;22.80;93.50;;;;;;5072768;28;20036;-88
2023/07/15 06:57:22;;;;;;;9.05;2.80;;;22.80;93.80;;;;;;5089552;28;20036;-87
2023/07/15 06:59:47;;;;;;;6.80;2.60;;;22.90;93.70;;;;;;5090796;28;20127;-88
2023/07/15 07:02:14;;;;;;;7.03;2.90;;;22.90;94.60;;;;;;5090363;28;20130;-87
2023/07/15 07:04:39;;;;;;;9.55;3.03;;;23.00;95.00;;;;;;5093507;28;20036;-88
2023/07/15 07:07:05;;;;;;;8.55;2.70;;;23.10;96.30;;;;;;5094744;28;20036;-88
2023/07/15 07:09:31;;;;;;;8.10;2.60;;;23.10;95.50;;;;;;5093394;28;20123;-88
2023/07/15 07:11:57;;;;;;;7.88;2.70;;;23.20;94.80;;;;;;5092821;28;20036;-88
2023/07/15 07:14:23;;;;;;;8.80;2.90;;;23.20;94.80;;;;;;5094381;28;20081;-88
2023/07/15 07:16:49;;;;;;;8.18;2.72;;;23.30;94.20;;;;;;5092999;28;20039;-87
2023/07/15 07:19:14;;;;;;;6.30;2.25;;;23.30;94.20;;;;;;5093235;28;20036;-89
2023/07/15 07:21:40;;;;;;;8.18;2.40;;;23.30;94.40;;;;;;5092141;28;20047;-88
2023/07/15 07:24:06;;;;;;;8.00;2.33;;;23.40;95.90;;;;;;5067144;28;20036;-88
2023/07/15 07:26:31;;;;;;;5.85;2.30;;;23.40;96.50;;;;;;5092784;28;20513;-88
2023/07/15 07:28:58;;;;;;;7.20;2.35;;;23.50;96.50;;;;;;5092085;28;20028;-88
2023/07/15 07:31:23;;;;;;;6.63;2.20;;;23.50;97.20;;;;;;5075440;28;20040;-88
2023/07/15 07:33:49;;;;;;;7.75;2.80;;;23.50;98.50;;;;;;5091892;28;20169;-88
2023/07/15 07:36:15;;;;;;;6.47;2.72;;;23.60;99.90;;;;;;5091752;28;20048;-88
2023/07/15 07:38:40;;;;;;;8.18;2.80;;;23.60;99.90;;;;;;5093215;28;20410;-87
2023/07/15 07:41:07;;;;;;;7.28;2.80;;;23.70;99.90;;;;;;5092543;28;20044;-88
2023/07/15 07:43:34;;;;;;;8.18;2.50;;;23.80;98.90;;;;;;5091780;28;20055;-88
2023/07/15 07:46:01;;;;;;;6.75;2.63;;;23.80;98.80;;;;;;5076249;28;20044;-88
2023/07/15 07:48:27;;;;;;;7.72;2.80;;;23.80;99.00;;;;;;5076004;28;20113;-88
2023/07/15 07:50:53;;;;;;;7.47;2.70;;;23.90;98.90;;;;;;5075925;28;20113;-88
2023/07/15 07:53:19;;;;;;;6.47;2.60;;;23.90;99.90;;;;;;5092490;28;20036;-88
2023/07/15 07:55:44;;;;;;;6.93;2.30;;;24.00;99.90;;;;;;5092292;28;20032;-88
2023/07/15 07:58:10;;;;;;;6.05;2.42;;;24.00;99.90;;;;;;5092221;28;20040;-88
2023/07/15 08:00:35;;;;;;;7.47;2.60;;;24.10;99.90;;;;;;5074469;28;20549;-88
2023/07/15 08:03:02;;;;;;;6.82;2.38;;;24.20;99.90;;;;;;5091884;28;20116;-88
2023/07/15 08:05:28;;;;;;;6.22;2.50;;;24.20;99.90;;;;;;5093061;28;20440;-87
2023/07/15 08:07:54;;;;;;;6.60;2.63;;;24.20;99.60;;;;;;5092643;28;20486;-88
2023/07/15 08:10:19;;;;;;;8.95;2.53;;;24.30;99.90;;;;;;5092535;28;20413;-87
2023/07/15 08:12:45;;;;;;;9.10;2.70;;;24.30;98.80;;;;;;5091091;28;20062;-87
2023/07/15 08:15:11;;;;;;;6.00;2.40;;;24.40;98.70;;;;;;5075150;28;20046;-87
2023/07/15 08:17:37;;;;;;;8.55;2.40;;;24.40;98.90;;;;;;5091838;28;20348;-87
2023/07/15 08:20:03;;;;;;;7.60;2.50;;;24.40;98.00;;;;;;5075602;28;20470;-88
2023/07/15 08:22:29;;;;;;;8.65;2.67;;;24.40;97.00;;;;;;5092993;28;20047;-88
2023/07/15 08:24:55;;;;;;;8.90;2.90;;;24.50;99.60;;;;;;5084563;28;20037;-87
2023/07/15 08:27:20;;;;;;;7.82;2.78;;;24.60;98.90;;;;;;5077120;28;20055;-88
2023/07/15 08:29:46;;;;;;;7.13;2.67;;;24.70;99.90;;;;;;5067405;28;20038;-88
2023/07/15 08:32:13;;;;;;;8.07;3.00;;;24.70;99.70;;;;;;5091599;28;20040;-88
2023/07/15 08:34:39;;;;;;;7.53;2.63;;;24.70;97.00;;;;;;5092113;28;20044;-87
2023/07/15 08:37:05;;;;;;;8.48;2.85;;;24.70;96.80;;;;;;5091203;28;20222;-88
2023/07/15 08:39:30;;;;;;;7.53;2.67;;;24.70;97.20;;;;;;5074827;28;20048;-88
2023/07/15 08:42:00;;;;;;;7.05;2.88;;;24.70;96.50;;;;;;5074835;28;20032;-89
2023/07/15 08:44:25;;;;;;;9.50;2.60;;;24.80;95.90;;;;;;5091866;28;20502;-88
2023/07/15 08:46:52;;;;;;;6.63;2.50;;;24.90;95.90;;;;;;5091793;28;20039;-88
2023/07/15 08:49:19;;;;;;;7.15;2.60;;;25.00;95.60;;;;;;5091634;28;20040;-88
2023/07/15 08:51:45;;;;;;;7.72;2.60;;;25.00;95.10;;;;;;5090978;28;20040;-88
2023/07/15 08:54:12;;;;;;;6.55;2.78;;;25.00;94.30;;;;;;5074624;28;20036;-88
2023/07/15 08:56:38;;;;;;;9.20;2.78;;;25.00;94.40;;;;;;5074308;28;20072;-88
2023/07/15 08:59:06;;;;;;;7.05;2.60;;;25.00;95.80;;;;;;5090859;28;20071;-88
2023/07/15 09:01:34;;;;;;;5.38;2.08;;;25.00;96.00;;;;;;5091547;28;20054;-88
2023/07/15 09:04:00;;;;;;;6.60;2.40;;;25.00;95.30;;;;;;5073987;28;20127;-87
2023/07/15 09:06:27;;;;;;;9.82;2.70;;;25.00;95.50;;;;;;5091431;28;20072;-88
2023/07/15 09:08:53;;;;;;;6.03;2.33;;;25.10;95.00;;;;;;5091533;28;20508;-88
2023/07/15 09:11:19;;;;;;;6.80;2.20;;;25.10;95.40;;;;;;5092818;28;20044;-88
2023/07/15 09:13:44;;;;;;;7.70;2.58;;;25.10;95.30;;;;;;5090706;28;20040;-89
2023/07/15 09:16:10;;;;;;;6.30;2.60;;;25.20;96.00;;;;;;5091130;28;20411;-88
2023/07/15 09:18:40;;;;;;;6.35;2.33;;;25.20;96.60;;;;;;5090510;28;20039;-88
2023/07/15 09:21:17;;;;;;;7.25;2.38;;;25.20;94.70;;;;;;5091675;28;20040;-88
2023/07/15 09:23:44;;;;;;;7.07;2.30;;;25.30;94.40;;;;;;5092116;28;20123;-87
2023/07/15 09:26:11;;;;;;;7.97;2.90;;;25.40;93.70;;;;;;5089702;28;20043;-88
2023/07/15 09:28:38;;;;;;;8.55;2.30;;;25.60;95.10;;;;;;5091027;28;20040;-88
2023/07/15 09:31:04;;;;;;;5.93;2.17;;;25.70;94.90;;;;;;5073402;28;20067;-88
2023/07/15 09:33:38;;;;;;;6.38;2.03;;;25.80;92.90;;;;;;5090584;28;20036;-88
2023/07/15 09:36:04;;;;;;;7.47;2.38;;;25.80;91.30;;;;;;5073233;28;20036;-88
2023/07/15 09:38:37;;;;;;;7.57;2.47;;;25.70;91.60;;;;;;5090462;28;20135;-87
2023/07/15 09:41:05;;;;;;;7.38;2.38;;;25.80;93.70;;;;;;5073465;28;20051;-87
2023/07/15 09:43:46;;;;;;;6.82;2.30;;;25.80;92.70;;;;;;5089545;28;20036;-88
2023/07/15 09:46:16;;;;;;;6.40;1.85;;;25.70;92.70;;;;;;5073764;28;20055;-89
2023/07/15 09:48:47;;;;;;;6.88;2.10;;;25.80;91.70;;;;;;5090756;28;20032;-88
2023/07/15 09:51:17;;;;;;;6.95;2.10;;;25.90;91.00;;;;;;5090835;28;20115;-88
2023/07/15 09:53:50;;;;;;;8.15;2.28;;;25.80;89.80;;;;;;5088302;28;20036;-89
2023/07/15 09:56:29;;;;;;;6.15;2.00;;;25.70;90.10;;;;;;5073898;28;20136;-88
2023/07/15 09:58:59;;;;;;;7.13;1.98;;;25.60;90.00;;;;;;5073648;28;20142;-88
2023/07/15 10:01:35;;;;;;;5.55;2.13;;;25.50;90.20;;;;;;5074333;28;20036;-88
2023/07/15 10:04:18;;;;;;;5.22;1.80;;;25.50;91.50;;;;;;5090442;28;20040;-88
2023/07/15 10:06:44;;;;;;;5.32;1.90;;;25.50;92.10;;;;;;5090479;28;20048;-88
2023/07/15 10:09:10;;;;;;;5.45;1.80;;;25.50;91.80;;;;;;5090941;28;20059;-88
2023/07/15 10:11:36;;;;;;;6.05;1.60;;;25.40;91.40;;;;;;5091910;28;20040;-88
2023/07/15 10:14:04;;;;;;;5.38;1.80;;;25.40;92.30;;;;;;5089709;28;20043;-88
2023/07/15 10:16:34;;;;;;;5.22;1.73;;;25.40;92.40;;;;;;5090214;28;20493;-88
2023/07/15 10:19:01;;;;;;;6.28;2.13;;;25.50;92.90;;;;;;5090303;28;20138;-88
2023/07/15 10:21:27;;;;;;;8.52;2.00;;;25.40;92.20;;;;;;5073679;28;20501;-88
2023/07/15 10:24:09;;;;;;;5.10;2.00;;;25.40;92.50;;;;;;5079914;28;20033;-88
2023/07/15 10:26:34;;;;;;;6.95;1.80;;;25.40;92.10;;;;;;5070256;28;20033;-87
2023/07/15 10:29:02;;;;;;;6.88;2.00;;;25.30;92.20;;;;;;5053529;28;20048;-88
2023/07/15 10:31:27;;;;;;;5.32;1.73;;;25.30;91.60;;;;;;5071814;28;20032;-88
2023/07/15 10:33:58;;;;;;;6.65;2.03;;;25.30;91.50;;;;;;5069797;28;20735;-88
2023/07/15 10:36:35;;;;;;;5.88;2.05;;;25.30;92.10;;;;;;5054631;28;20044;-88
2023/07/15 10:39:16;;;;;;;7.13;2.10;;;25.40;92.40;;;;;;5057110;28;20036;-89
2023/07/15 10:41:52;;;;;;;6.45;1.88;;;25.30;92.10;;;;;;5056514;28;20165;-87
2023/07/15 10:44:22;;;;;;;6.07;2.20;;;25.30;92.00;;;;;;5056916;28;20044;-88
2023/07/15 10:47:01;;;;;;;6.40;1.88;;;25.30;91.80;;;;;;5082043;28;20563;-88
2023/07/15 10:49:27;;;;;;;5.47;1.80;;;25.20;91.30;;;;;;5084816;28;20059;-88
2023/07/15 10:51:54;;;;;;;5.47;1.80;;;25.30;92.00;;;;;;5065718;28;20391;-88
2023/07/15 10:54:27;;;;;;;6.05;1.73;;;25.40;92.10;;;;;;5094019;28;20647;-88
2023/07/15 10:56:54;;;;;;;6.38;2.00;;;25.50;91.60;;;;;;5093720;28;20529;-88
2023/07/15 10:59:23;;;;;;;6.90;2.35;;;25.50;91.90;;;;;;5088779;28;20040;-88
2023/07/15 11:01:48;;;;;;;7.15;2.20;;;25.70;91.00;;;;;;5084033;28;20047;-88
2023/07/15 11:04:19;;;;;;;6.00;2.13;;;25.80;92.00;;;;;;5081748;28;20041;-88
2023/07/15 11:06:45;;;;;;;7.40;2.05;;;25.90;91.40;;;;;;5064287;28;20029;-88
2023/07/15 11:09:15;;;;;;;5.82;2.00;;;25.80;90.50;;;;;;5061242;28;20043;-88
2023/07/15 11:11:41;;;;;;;7.68;2.20;;;25.80;91.30;;;;;;5088023;28;20078;-88
2023/07/15 11:14:18;;;;;;;6.00;2.15;;;25.70;90.60;;;;;;5057496;28;20072;-88
2023/07/15 11:16:44;;;;;;;8.52;2.30;;;25.60;91.00;;;;;;5073737;28;20055;-88
2023/07/15 11:19:14;;;;;;;6.60;1.80;;;25.50;92.10;;;;;;5073202;28;20036;-88
2023/07/15 11:21:39;;;;;;;6.78;2.00;;;25.40;91.60;;;;;;5072601;28;20051;-88
2023/07/15 11:24:05;;;;;;;6.00;1.85;;;25.20;92.00;;;;;;5075846;28;20040;-88
2023/07/15 11:26:31;;;;;;;5.53;2.00;;;25.10;91.30;;;;;;5083441;28;20467;-88
2023/07/15 11:28:56;;;;;;;7.45;2.00;;;25.00;91.20;;;;;;5079924;28;20465;-88
2023/07/15 11:31:22;;;;;;;7.53;2.00;;;25.00;90.80;;;;;;5078161;28;20519;-88
2023/07/15 11:33:52;;;;;;;8.15;2.03;;;25.00;91.30;;;;;;5060612;28;20067;-89
2023/07/15 11:36:18;;;;;;;5.45;1.90;;;24.90;91.80;;;;;;5062002;28;20035;-88
2023/07/15 11:38:43;;;;;;;5.72;2.00;;;24.90;92.00;;;;;;5079076;28;20052;-88
2023/07/15 11:41:09;;;;;;;6.72;2.10;;;24.80;92.20;;;;;;5080359;28;20037;-89
2023/07/15 11:43:35;;;;;;;7.35;2.25;;;24.80;92.10;;;;;;5078583;28;20094;-88
2023/07/15 11:46:01;;;;;;;7.70;2.00;;;24.80;92.40;;;;;;5076842;28;20048;-88
2023/07/15 11:48:31;;;;;;;6.43;2.20;;;24.80;93.70;;;;;;5076968;28;20044;-88
2023/07/15 11:51:07;;;;;;;6.28;2.20;;;24.80;94.10;;;;;;5078678;28;20032;-88
2023/07/15 11:53:35;;;;;;;7.47;2.30;;;24.80;93.70;;;;;;5061158;28;20073;-88
2023/07/15 11:56:00;;;;;;;8.65;2.30;;;24.80;93.00;;;;;;5079170;28;20130;-88
2023/07/15 11:58:53;;;;;;;7.50;2.13;;;24.70;92.80;;;;;;5060323;28;20123;-88
2023/07/15 12:01:25;;;;;;;8.98;2.55;;;24.70;93.30;;;;;;5076714;28;20501;-88
2023/07/15 12:03:52;;;;;;;6.32;2.00;;;24.70;92.70;;;;;;5060489;28;20067;-88
2023/07/15 12:06:23;;;;;;;6.20;2.20;;;24.70;92.00;;;;;;5078253;28;20393;-88
2023/07/15 12:09:12;;;;;;;5.50;1.95;;;24.80;91.60;;;;;;5078982;28;20032;-88
2023/07/15 12:11:38;;;;;;;7.95;2.00;;;24.80;92.00;;;;;;5070572;28;20110;-88
2023/07/15 12:14:05;;;;;;;6.00;2.10;;;24.90;91.60;;;;;;5054588;28;20044;-88
2023/07/15 12:16:32;;;;;;;7.25;2.08;;;25.10;91.40;;;;;;5051512;28;20036;-88
2023/07/15 12:19:00;;;;;;;7.63;2.30;;;25.10;90.70;;;;;;5067986;28;20040;-88
2023/07/15 12:21:26;;;;;;;6.63;2.20;;;25.10;90.90;;;;;;5068287;28;20052;-88
2023/07/15 12:23:52;;;;;;;6.25;2.00;;;25.10;90.90;;;;;;5067393;28;20131;-88
2023/07/15 12:26:18;;;;;;;4.90;2.08;;;25.10;91.70;;;;;;5051774;28;20631;-88
2023/07/15 12:28:44;;;;;;;5.55;1.80;;;25.00;91.70;;;;;;5067897;28;20045;-88
2023/07/15 12:31:11;;;;;;;6.00;1.92;;;25.00;91.10;;;;;;5051342;28;20036;-88
2023/07/15 12:33:37;;;;;;;4.70;1.80;;;24.90;91.80;;;;;;5068549;28;20622;-88
2023/07/15 12:36:03;;;;;;;7.10;2.10;;;24.80;92.10;;;;;;5068494;28;20146;-88
2023/07/15 12:38:29;;;;;;;4.72;1.70;;;24.70;92.90;;;;;;5087860;28;20177;-88
2023/07/15 12:40:54;;;;;;;5.13;1.73;;;24.70;93.40;;;;;;5088067;28;20134;-88
2023/07/15 12:43:23;;;;;;;5.78;1.77;;;24.70;93.40;;;;;;5087523;28;20174;-88